Orbital elements of ORBCOMM FM13
| Launched | 1 August 1998 |
| Flight ended | – |
| Launch site | Eastern Range Airspace |
| Owner | ORBCOMM |
| NORAD ID | 25420 |
| Alternative names |
SLOT B1 |
| Date fetched |
Epoch osculation |
Inc. [°] |
Ecc. | RA asc node [hr] |
Arg Peri. [°] |
Mean anom [°] |
Mean motion [rev/day] |
Abs. mag |
| Date fetched |
Epoch osculation |
Inc. [°] |
Ecc. | RA asc node [hr] |
Arg Peri. [°] |
Mean anom [°] |
Mean motion [rev/day] |
Abs. mag |
| 2026 May 03 17:57 | 2026 Apr 30 09:56:52 | 44.9960 | 0.00032 | 7.9851 | 47.6899 | 312.4222 | 14.38553 | 9.243 |
| 2026 May 02 17:57 | 2026 Apr 30 09:56:52 | 44.9960 | 0.00032 | 7.9851 | 47.6899 | 312.4222 | 14.38553 | 9.243 |
| 2026 May 01 17:56 | 2026 Apr 30 09:56:52 | 44.9960 | 0.00032 | 7.9851 | 47.6899 | 312.4222 | 14.38553 | 9.243 |
| 2026 Apr 30 17:56 | 2026 Apr 30 09:56:52 | 44.9960 | 0.00032 | 7.9851 | 47.6899 | 312.4222 | 14.38553 | 9.243 |
| 2026 Apr 29 17:57 | 2026 Apr 24 12:16:32 | 44.9957 | 0.00035 | 9.8527 | 14.9484 | 312.4222 | 14.38553 | 9.243 |
| 2026 Apr 28 17:56 | 2026 Apr 24 12:16:32 | 44.9957 | 0.00035 | 9.8527 | 14.9484 | 312.4222 | 14.38553 | 9.243 |
| 2026 Apr 27 17:58 | 2026 Apr 24 12:16:32 | 44.9957 | 0.00035 | 9.8527 | 14.9484 | 312.4222 | 14.38553 | 9.243 |
| 2026 Apr 26 17:58 | 2026 Apr 24 12:16:32 | 44.9957 | 0.00035 | 9.8527 | 14.9484 | 312.4222 | 14.38553 | 9.243 |
| 2026 Apr 25 17:58 | 2026 Apr 24 12:16:32 | 44.9957 | 0.00035 | 9.8527 | 14.9484 | 312.4222 | 14.38553 | 9.243 |
| 2026 Apr 24 17:59 | 2026 Apr 24 12:16:32 | 44.9957 | 0.00035 | 9.8527 | 14.9484 | 312.4222 | 14.38553 | 9.243 |
| 2026 Apr 23 17:57 | 2026 Apr 19 05:36:11 | 44.9963 | 0.00039 | 11.5226 | 349.5321 | 312.4222 | 14.38553 | 9.243 |
| 2026 Apr 22 17:57 | 2026 Apr 19 05:36:11 | 44.9963 | 0.00039 | 11.5226 | 349.5321 | 312.4222 | 14.38553 | 9.243 |
| 2026 Apr 21 17:57 | 2026 Apr 19 05:36:11 | 44.9963 | 0.00039 | 11.5226 | 349.5321 | 312.4222 | 14.38553 | 9.243 |
| 2026 Apr 20 17:57 | 2026 Apr 19 05:36:11 | 44.9963 | 0.00039 | 11.5226 | 349.5321 | 312.4222 | 14.38553 | 9.243 |
| 2026 Apr 19 17:58 | 2026 Apr 19 05:36:11 | 44.9963 | 0.00039 | 11.5226 | 349.5321 | 312.4222 | 14.38553 | 9.243 |
| 2026 Apr 18 17:56 | 2026 Apr 14 12:15:51 | 44.9965 | 0.00042 | 13.0167 | 328.8524 | 312.4222 | 14.38553 | 9.243 |
| 2026 Apr 16 17:57 | 2026 Apr 14 12:15:51 | 44.9965 | 0.00042 | 13.0167 | 328.8524 | 312.4222 | 14.38553 | 9.243 |
| 2026 Apr 14 17:57 | 2026 Apr 14 12:15:51 | 44.9965 | 0.00042 | 13.0167 | 328.8524 | 312.4222 | 14.38553 | 9.243 |
| 2026 Apr 13 17:57 | 2026 Apr 13 06:15:46 | 44.9966 | 0.00043 | 13.4122 | 323.6487 | 312.4222 | 14.38553 | 9.243 |
| 2026 Apr 12 17:57 | 2026 Apr 12 08:35:42 | 44.9967 | 0.00043 | 13.6978 | 319.8911 | 312.4222 | 14.38553 | 9.243 |
| 2026 Apr 11 17:57 | 2026 Apr 11 09:15:37 | 44.9968 | 0.00044 | 14.0054 | 316.0251 | 312.4222 | 14.38553 | 9.243 |
| 2026 Apr 10 17:58 | 2026 Apr 10 06:35:32 | 44.9968 | 0.00044 | 14.3570 | 311.6948 | 312.4222 | 14.38553 | 9.243 |
| 2026 Apr 09 18:01 | 2026 Apr 09 07:15:27 | 44.9970 | 0.00045 | 14.6646 | 307.9483 | 312.4222 | 14.38553 | 9.243 |
| 2026 Apr 08 17:57 | 2026 Apr 08 07:55:23 | 44.9965 | 0.00045 | 14.9722 | 303.9745 | 312.4222 | 14.38553 | 9.243 |
| 2026 Apr 07 17:57 | 2026 Apr 06 17:35:15 | 44.9964 | 0.00045 | 15.4775 | 297.7784 | 312.4222 | 14.38553 | 9.243 |
| 2026 Apr 06 17:57 | 2026 Apr 05 09:55:08 | 44.9969 | 0.00046 | 15.8950 | 292.9774 | 312.4222 | 14.38553 | 9.243 |